D/T METAR WX W/DIR W/SPE G/SPE TEMP DEWP
5/06/20 06:50 EGQS 050550Z 31018KT 9999 FEW018 SCT022 BKN040 08/04 Q0995 TEMPO FEW022 RMK WHT TEMPO BLU NW (310°) 20.7mph 8°C 4°C
5/06/20 05:50 EGQS 050450Z 32014KT 9999 FEW019 SCT032 BKN250 07/05 Q0995 RMK BLU NW (320°) 16.1mph 7°C 5°C
5/06/20 04:50 EGQS 050350Z 33017KT 9999 -SHRA SCT018 BKN028 07/05 Q0996 RMK WHT -SHRA NNW (330°) 19.6mph 7°C 5°C
5/06/20 03:50 EGQS 050250Z 31016KT 9999 SCT018 BKN032 07/04 Q0996 RMK WHT NW (310°) 18.4mph 7°C 4°C
5/06/20 02:50 EGQS 050150Z 32015KT 9999 FEW019 BKN040 07/04 Q0997 RMK BLU NW (320°) 17.3mph 7°C 4°C
5/06/20 01:50 EGQS 050050Z 31016KT 9999 FEW020 SCT046 BKN250 07/04 Q0997 RMK BLU NW (310°) 18.4mph 7°C 4°C
5/06/20 00:50 EGQS 042350Z 31015KT 9999 FEW020 SCT048 07/04 Q0998 RESHRA RMK BLU NW (310°) 17.3mph 7°C 4°C
4/06/20 23:50 EGQS 042250Z 34014KT 9999 FEW020 BKN042 08/04 Q0999 RMK BLU NNW (340°) 16.1mph 8°C 4°C
4/06/20 22:50 EGQS 042150Z 33016KT 9999 FEW021 BKN035 08/05 Q0999 RMK BLU NNW (330°) 18.4mph 8°C 5°C
4/06/20 21:50 EGQS 042050Z 34016KT 9999 -SHRA SCT020 SCT042 BKN250 09/04 Q1000 RMK WHT -SHRA NNW (340°) 18.4mph 9°C 4°C
4/06/20 20:50 EGQS 041950Z 34012KT 9999 FEW020 SCT055 BKN250 09/04 Q1000 RMK BLU NNW (340°) 13.8mph 9°C 4°C
4/06/20 19:50 EGQS 041850Z 35008KT 9999 SCT020 SCT070 BKN250 09/05 Q1000 RMK WHT N (350°) 9.2mph 9°C 5°C
4/06/20 18:50 EGQS 041750Z 35009KT 9999 VCSH FEW022 SCT035 10/05 Q1000 RMK BLU VCSH N (350°) 10.4mph 10°C 5°C
4/06/20 17:50 EGQS 041650Z 04005KT 9999 VCSH FEW022 SCT030 11/04 Q1001 TEMPO -SHRA SCT022 RMK BLU TEMPO WHT VCSH NE (40°) 5.8mph 11°C 4°C
4/06/20 16:50 EGQS 041550Z 03006KT 9999 FEW023 SCT035 10/04 Q1001 NOSIG RMK BLU BLU NNE (30°) 6.9mph 10°C 4°C
4/06/20 15:50 EGQS 041450Z 04005KT 9999 FEW020 SCT035 11/04 Q1002 TEMPO -SHRA SCT020 RMK BLU TEMPO WHT NE (40°) 5.8mph 11°C 4°C
4/06/20 14:50 EGQS 041350Z 04005KT 9999 FEW025 SCT035 BKN070 10/05 Q1002 NOSIG RMK BLU BLU NE (40°) 5.8mph 10°C 5°C
4/06/20 13:50 EGQS 041250Z 04007KT 9999 FEW020 SCT035 BKN055 09/05 Q1003 NOSIG RMK BLU BLU NE (40°) 8.1mph 9°C 5°C
4/06/20 13:19 EGQS 041219Z 04008KT 9999 6000S -RA FEW013 BKN042 08/06 Q1003 BECMG 9999 NSW RMK WHT BECMG BLU -RA NE (40°) 9.2mph 8°C 6°C
4/06/20 12:29 EGQS 041129Z 05011KT 9999 -RA FEW008 SCT012 BKN018 08/06 Q1003 TEMPO FEW012 SCT018 RMK GRN TEMPO WHT -RA NE (50°) 12.7mph 8°C 6°C
4/06/20 11:50 EGQS 041050Z 07009KT 9999 FEW014 BKN020 08/05 Q1003 TEMPO FEW020 RMK WHT TEMPO BLU ENE (70°) 10.4mph 8°C 5°C
4/06/20 11:00 EGQS 041000Z 08009KT 9999 -SHRA FEW014 SCT020 BKN025 09/05 Q1003 TEMPO FEW020 RMK WHT TEMPO BLU -SHRA E (80°) 10.4mph 9°C 5°C
4/06/20 10:16 EGQS 040916Z 07006KT 9999 -SHRA FEW018 BKN025 OVC035 08/06 Q1003 TEMPO 7000 -SHRA SCT018 BKN025 RMK BLU TEMPO WHT -SHRA ENE (70°) 6.9mph 8°C 6°C
4/06/20 09:21 EGQS 040821Z 02005KT 9999 7000N -SHRA SCT012 BKN022 OVC032 08/06 Q1004 BECMG 9999 NSW FEW012 RMK GRN BECMG BLU -SHRA NNE (20°) 5.8mph 8°C 6°C
4/06/20 07:50 EGQS 040650Z 25006KT 9999 FEW014 SCT025 BKN038 09/05 Q1004 TEMPO -SHRA SCT022 RMK BLU TEMPO WHT WSW (250°) 6.9mph 9°C 5°C
4/06/20 06:57 EGQS 040557Z 24006KT 9999 FEW014 BKN040 08/05 Q1005 RMK BLU WSW (240°) 6.9mph 8°C 5°C
4/06/20 05:50 EGQS 040450Z 23005KT 9999 FEW023 BKN045 07/05 Q1005 RMK BLU SW (230°) 5.8mph 7°C 5°C
4/06/20 04:50 EGQS 040350Z 22005KT 9999 SCT018 BKN030 BKN060 07/05 Q1007 RMK WHT SW (220°) 5.8mph 7°C 5°C
4/06/20 03:50 EGQS 040250Z 24003KT 9999 FEW020 BKN060 07/04 Q1007 RMK BLU WSW (240°) 3.5mph 7°C 4°C
4/06/20 02:50 EGQS 040150Z 32006KT 9999 FEW045 BKN080 08/04 Q1008 RMK BLU NW (320°) 6.9mph 8°C 4°C
4/06/20 01:50 EGQS 040050Z 32009KT 9999 FEW021 SCT045 BKN080 08/05 Q1009 RMK BLU NW (320°) 10.4mph 8°C 5°C
4/06/20 00:50 EGQS 032350Z 34008KT 9999 FEW020 SCT025 BKN130 09/05 Q1010 RMK BLU NNW (340°) 9.2mph 9°C 5°C
3/06/20 23:50 EGQS 032250Z 35007KT 9999 FEW025 SCT035 BKN045 09/05 Q1011 RMK BLU N (350°) 8.1mph 9°C 5°C
3/06/20 22:50 EGQS 032150Z 34007KT 9999 FEW025 BKN050 09/05 Q1012 RMK BLU NNW (340°) 8.1mph 9°C 5°C
3/06/20 21:50 EGQS 032050Z 35009KT 9999 FEW025 SCT040 BKN050 09/05 Q1013 RMK BLU N (350°) 10.4mph 9°C 5°C
3/06/20 20:50 EGQS 031950Z 35014KT 9999 FEW025 SCT040 BKN050 09/05 Q1014 RMK BLU N (350°) 16.1mph 9°C 5°C
3/06/20 19:50 EGQS 031850Z 35012KT 9999 FEW030 BKN050 10/05 Q1014 RMK BLU N (350°) 13.8mph 10°C 5°C
3/06/20 18:50 EGQS 031750Z 34012KT 9999 FEW020 SCT040 BKN050 11/05 Q1015 RMK BLU NNW (340°) 13.8mph 11°C 5°C
3/06/20 17:50 EGQS 031650Z 35012KT 9999 FEW025 SCT035 BKN050 11/04 Q1015 NOSIG RMK BLU BLU N (350°) 13.8mph 11°C 4°C
3/06/20 16:50 EGQS 031550Z 01009KT 9999 FEW024 SCT045 BKN054 12/05 Q1016 NOSIG RMK BLU BLU N (10°) 10.4mph 12°C 5°C
3/06/20 15:50 EGQS 031450Z 01013KT 9999 FEW024 BKN056 BKN250 12/05 Q1016 NOSIG RMK BLU BLU N (10°) 15.0mph 12°C 5°C
3/06/20 14:50 EGQS 031350Z 01016KT 9999 FEW022 BKN048 11/06 Q1017 NOSIG RMK BLU BLU N (10°) 18.4mph 11°C 6°C
3/06/20 13:50 EGQS 031250Z 36016KT 9999 FEW020 SCT034 BKN044 11/06 Q1017 TEMPO SCT020 RMK BLU TEMPO WHT N (360°) 18.4mph 11°C 6°C
3/06/20 12:50 EGQS 031150Z 36018KT 9999 SCT020 BKN028 11/06 Q1017 TEMPO SCT012 RMK WHT TEMPO GRN N (360°) 20.7mph 11°C 6°C
3/06/20 12:31 EGQS 031131Z 35016KT 9999 SCT020 BKN028 11/06 Q1017 TEMPO SCT012 RMK WHT TEMPO GRN N (350°) 18.4mph 11°C 6°C
3/06/20 11:50 EGQS 031050Z 35016KT 9999 FEW020 BKN027 11/06 Q1017 TEMPO 7000 SHRA SCT012 RMK BLU TEMPO GRN N (350°) 18.4mph 11°C 6°C
3/06/20 10:50 EGQS 030950Z 35016KT 9999 FEW024 BKN028 10/05 Q1018 TEMPO 7000 SHRA SCT012 RMK BLU TEMPO GRN N (350°) 18.4mph 10°C 5°C
3/06/20 09:50 EGQS 030850Z 34014KT 9999 SCT023 BKN026 09/05 Q1018 TEMPO 7000 SHRA SCT012 RMK WHT TEMPO GRN NNW (340°) 16.1mph 9°C 5°C
3/06/20 08:50 EGQS 030750Z 35015KT 9999 FEW022 BKN026 09/05 Q1018 TEMPO SCT022 RMK BLU TEMPO WHT N (350°) 17.3mph 9°C 5°C
3/06/20 07:50 EGQS 030650Z 35015KT 9999 FEW018 BKN035 10/05 Q1019 TEMPO SCT022 RMK BLU TEMPO WHT N (350°) 17.3mph 10°C 5°C
3/06/20 06:50 EGQS 030550Z 35013KT 9999 -RA SCT018 BKN035 09/06 Q1019 TEMPO FEW018 RMK WHT TEMPO BLU -RA N (350°) 15.0mph 9°C 6°C
3/06/20 05:50 EGQS 030450Z 36015KT 9999 SCT018 BKN038 09/05 Q1019 RMK WHT N (360°) 17.3mph 9°C 5°C
3/06/20 04:50 EGQS 030350Z 35015KT 9999 SCT018 BKN038 09/06 Q1019 RMK WHT N (350°) 17.3mph 9°C 6°C
3/06/20 03:50 EGQS 030250Z 36012KT 9999 FEW018 BKN025 BKN040 09/06 Q1019 RMK BLU N (360°) 13.8mph 9°C 6°C
3/06/20 02:50 EGQS 030150Z 01013KT 9999 FEW020 BKN032 09/06 Q1019 RMK BLU N (10°) 15.0mph 9°C 6°C
3/06/20 01:50 EGQS 030050Z 02014KT 9999 FEW015 BKN028 09/06 Q1019 RMK BLU NNE (20°) 16.1mph 9°C 6°C
3/06/20 00:50 EGQS 022350Z 01014KT 9999 FEW015 BKN034 09/06 Q1020 RMK BLU N (10°) 16.1mph 9°C 6°C
2/06/20 23:50 EGQS 022250Z 01015KT 9999 SCT015 BKN028 BKN090 09/06 Q1020 RMK WHT N (10°) 17.3mph 9°C 6°C
2/06/20 22:50 EGQS 022150Z 02015KT 9999 SCT015 BKN028 BKN080 09/07 Q1020 RMK WHT NNE (20°) 17.3mph 9°C 7°C
2/06/20 21:50 EGQS 022050Z 02015KT 9999 -RA FEW006 SCT010 BKN028 09/07 Q1020 RMK GRN -RA NNE (20°) 17.3mph 9°C 7°C
2/06/20 20:50 EGQS 021950Z 02013KT 9000 -RADZ FEW006 BKN009 BKN020 10/09 Q1020 RMK GRN -RA -DZ NNE (20°) 15.0mph 10°C 9°C
2/06/20 19:50 EGQS 021850Z 02016KT 8000 -RADZ FEW005 BKN007 BKN015 10/09 Q1020 RMK GRN -RA -DZ NNE (20°) 18.4mph 10°C 9°C
2/06/20 18:50 EGQS 021750Z 02013KT 8000 -RADZ FEW004 BKN006 BKN015 11/10 Q1019 RMK YLO1 -RA -DZ NNE (20°) 15.0mph 11°C 10°C
2/06/20 17:50 EGQS 021650Z 03011KT 8000 -RADZ FEW004 BKN006 BKN012 11/10 Q1019 RMK YLO1 -RA -DZ NNE (30°) 12.7mph 11°C 10°C
2/06/20 16:50 EGQS 021550Z 04008KT 9999 6000S -RADZ FEW004 BKN006 BKN010 11/10 Q1020 RMK YLO1 -RA DZ NE (40°) 9.2mph 11°C 10°C
2/06/20 15:50 EGQS 021450Z 05006KT 9999 -RA SCT005 BKN008 BKN012 11/11 Q1020 TEMPO 6000 RA SCT004 RMK YLO1 TEMPO YLO2 -RA NE (50°) 6.9mph 11°C 11°C
2/06/20 14:50 EGQS 021350Z 04006KT 8000 -RA BKN006 BKN010 11/11 Q1020 TEMPO 6000 RA RMK YLO1 TEMPO YLO1 -RA NE (40°) 6.9mph 11°C 11°C
2/06/20 13:50 EGQS 021250Z 04007KT 9999 -RA SCT007 BKN011 12/11 Q1021 TEMPO 6000 RA SCT006 RMK GRN TEMPO YLO1 -RA NE (40°) 8.1mph 12°C 11°C
2/06/20 12:50 EGQS 021150Z 05006KT 9999 -RA SCT007 BKN013 OVC050 12/10 Q1021 TEMPO 6000 RA SCT006 RMK GRN TEMPO YLO1 -RA NE (50°) 6.9mph 12°C 10°C
2/06/20 11:50 EGQS 021050Z 07006KT 9999 SCT007 OVC070 12/11 Q1021 TEMPO FEW007 RMK GRN TEMPO BLU ENE (70°) 6.9mph 12°C 11°C
2/06/20 10:50 EGQS 020950Z 05007KT 9999 -RA SCT005 BKN080 12/11 Q1022 TEMPO FEW005 RMK YLO1 TEMPO BLU -RA NE (50°) 8.1mph 12°C 11°C
2/06/20 10:30 EGQS 020930Z 03006KT 9999 -RA SCT005 BKN080 12/10 Q1022 TEMPO FEW005 RMK YLO1 TEMPO BLU -RA NNE (30°) 6.9mph 12°C 10°C
2/06/20 09:50 EGQS 020850Z 08004KT 9999 FEW007 BKN080 12/10 Q1022 TEMPO SCT007 RMK BLU TEMPO GRN E (80°) 4.6mph 12°C 10°C
2/06/20 08:50 EGQS 020750Z 08004KT 9999 -RA FEW015 BKN080 12/10 Q1021 NOSIG RMK BLU BLU -RA E (80°) 4.6mph 12°C 10°C
2/06/20 07:50 EGQS 020650Z 06004KT 9999 FEW020 BKN100 BKN250 13/10 Q1022 NOSIG RMK BLU BLU ENE (60°) 4.6mph 13°C 10°C
2/06/20 06:50 EGQS 020550Z 13004KT CAVOK 13/11 Q1022 NOSIG RMK BLU BLU SE (130°) 4.6mph 13°C 11°C
2/06/20 05:50 EGQS 020450Z 13004KT CAVOK 12/11 Q1022 RMK BLU SE (130°) 4.6mph 12°C 11°C
2/06/20 04:50 EGQS 020350Z 36001KT CAVOK 12/11 Q1022 RMK BLU N (360°) 1.2mph 12°C 11°C
2/06/20 03:50 EGQS 020250Z 30003KT CAVOK 12/11 Q1022 RMK BLU WNW (300°) 3.5mph 12°C 11°C
2/06/20 02:50 EGQS 020150Z 29004KT CAVOK 12/11 Q1023 RMK BLU WNW (290°) 4.6mph 12°C 11°C
2/06/20 01:50 EGQS 020050Z 26005KT CAVOK 12/11 Q1023 RMK BLU W (260°) 5.8mph 12°C 11°C
2/06/20 00:50 EGQS 012350Z 24007KT CAVOK 12/11 Q1023 RMK BLU WSW (240°) 8.1mph 12°C 11°C
1/06/20 23:50 EGQS 012250Z 24007KT CAVOK 12/11 Q1023 RMK BLU WSW (240°) 8.1mph 12°C 11°C
1/06/20 22:50 EGQS 012150Z 24008KT CAVOK 13/11 Q1023 RMK BLU WSW (240°) 9.2mph 13°C 11°C
1/06/20 21:50 EGQS 012050Z 01003KT CAVOK 15/11 Q1023 RMK BLU N (10°) 3.5mph 15°C 11°C
1/06/20 20:50 EGQS 011950Z 02003KT CAVOK 17/10 Q1023 RMK BLU NNE (20°) 3.5mph 17°C 10°C
1/06/20 19:50 EGQS 011850Z 08007KT CAVOK 19/10 Q1023 RMK BLU E (80°) 8.1mph 19°C 10°C
1/06/20 18:50 EGQS 011750Z 07009KT CAVOK 21/10 Q1023 RMK BLU ENE (70°) 10.4mph 21°C 10°C
1/06/20 17:50 EGQS 011650Z 04008KT CAVOK 18/11 Q1024 NOSIG RMK BLU BLU NE (40°) 9.2mph 18°C 11°C
1/06/20 16:50 EGQS 011550Z 08010KT 9999 FEW045 SCT250 22/09 Q1024 NOSIG RMK BLU BLU E (80°) 11.5mph 22°C 9°C
1/06/20 15:50 EGQS 011450Z 09011KT 9999 FEW045 SCT300 21/08 Q1024 NOSIG RMK BLU BLU E (90°) 12.7mph 21°C 8°C
1/06/20 13:50 EGQS 011250Z 08008KT 9999 FEW035 21/08 Q1025 NOSIG RMK BLU BLU E (80°) 9.2mph 21°C 8°C
1/06/20 12:50 EGQS 011150Z 03004KT 9999 FEW035 21/08 Q1025 NOSIG RMK BLU BLU NNE (30°) 4.6mph 21°C 8°C
1/06/20 11:50 EGQS 011050Z 36005KT 9999 FEW035 20/09 Q1026 NOSIG RMK BLU BLU N (360°) 5.8mph 20°C 9°C
1/06/20 10:50 EGQS 010950Z 01005KT 9999 FEW035 18/10 Q1026 NOSIG RMK BLU BLU N (10°) 5.8mph 18°C 10°C
1/06/20 09:50 EGQS 010850Z 35005KT 9999 FEW035 17/09 Q1026 NOSIG RMK BLU BLU N (350°) 5.8mph 17°C 9°C